createdAt,value
2023-03-06T00:01:00.942Z,3.91
2023-03-06T00:03:28.496Z,3.89
2023-03-06T00:05:57.674Z,3.85
2023-03-06T00:08:27.501Z,3.90
2023-03-06T00:10:56.253Z,3.87
2023-03-06T00:13:23.455Z,3.93
2023-03-06T00:15:50.649Z,3.95
2023-03-06T00:18:17.696Z,3.97
2023-03-06T00:20:44.864Z,3.99
2023-03-06T00:23:13.953Z,4.00
2023-03-06T00:25:45.967Z,4.00
2023-03-06T00:28:14.843Z,3.99
2023-03-06T00:30:42.656Z,3.98
2023-03-06T00:33:09.974Z,4.02
2023-03-06T00:35:39.653Z,4.02
2023-03-06T00:38:06.943Z,4.02
2023-03-06T00:40:34.149Z,4.00
2023-03-06T00:43:01.221Z,4.01
2023-03-06T00:45:28.164Z,4.07
2023-03-06T00:47:55.248Z,4.08
2023-03-06T00:50:22.285Z,4.07
2023-03-06T00:52:49.488Z,4.05
2023-03-06T00:55:16.627Z,4.04
2023-03-06T00:57:43.571Z,4.02
2023-03-06T01:00:13.295Z,4.04
2023-03-06T01:02:40.554Z,4.06
2023-03-06T01:05:08.823Z,4.03
2023-03-06T01:07:37.746Z,4.01
2023-03-06T01:10:08.000Z,3.99
2023-03-06T01:12:35.137Z,3.99
2023-03-06T01:15:02.414Z,4.00
2023-03-06T01:17:29.358Z,3.99
2023-03-06T01:19:57.802Z,3.97
2023-03-06T01:22:24.782Z,4.00
2023-03-06T01:24:53.189Z,4.04
2023-03-06T01:27:21.872Z,4.01
2023-03-06T01:29:48.832Z,4.01
2023-03-06T01:32:15.867Z,3.99
2023-03-06T01:34:42.834Z,4.02
2023-03-06T01:37:09.827Z,4.00
2023-03-06T01:39:36.709Z,3.98
2023-03-06T01:42:04.610Z,3.98
2023-03-06T01:44:31.680Z,3.98
2023-03-06T01:47:02.163Z,3.95
2023-03-06T01:49:40.356Z,3.87
2023-03-06T01:52:12.545Z,3.91
2023-03-06T01:54:48.625Z,3.84
2023-03-06T01:57:35.510Z,3.85
2023-03-06T02:00:09.532Z,3.87
2023-03-06T02:02:57.007Z,3.84
2023-03-06T02:05:24.313Z,3.84
2023-03-06T02:07:53.714Z,3.83
2023-03-06T02:10:21.475Z,3.83
2023-03-06T02:12:51.340Z,3.83
2023-03-06T02:15:22.923Z,3.80
2023-03-06T02:17:51.526Z,3.81
2023-03-06T02:20:35.382Z,3.78
2023-03-06T02:23:13.596Z,3.77
2023-03-06T02:25:50.245Z,3.77
2023-03-06T02:28:22.392Z,3.72
2023-03-06T02:30:54.037Z,3.70
2023-03-06T02:33:27.781Z,3.70
2023-03-06T02:36:05.026Z,3.72
2023-03-06T02:38:43.915Z,3.74
2023-03-06T02:41:12.089Z,3.73
2023-03-06T02:43:40.929Z,3.72
2023-03-06T02:46:08.082Z,3.75
2023-03-06T02:48:35.304Z,3.76
2023-03-06T02:51:02.953Z,3.79
2023-03-06T02:53:29.976Z,3.76
2023-03-06T02:55:59.845Z,3.75
2023-03-06T02:58:26.863Z,3.77
2023-03-06T03:00:53.859Z,3.73
2023-03-06T03:03:21.568Z,3.75
2023-03-06T03:05:48.473Z,3.73
2023-03-06T03:08:23.056Z,3.74
2023-03-06T03:10:55.232Z,3.73
2023-03-06T03:13:23.260Z,3.72
2023-03-06T03:16:06.486Z,3.63
2023-03-06T03:18:34.910Z,3.62
2023-03-06T03:21:06.606Z,3.61
2023-03-06T03:23:33.670Z,3.63
2023-03-06T03:26:09.220Z,3.66
2023-03-06T03:28:39.150Z,3.64
2023-03-06T03:31:09.515Z,3.60
2023-03-06T03:33:37.027Z,3.62
2023-03-06T03:36:06.831Z,3.62
2023-03-06T03:38:37.531Z,3.64
2023-03-06T03:41:05.428Z,3.61
2023-03-06T03:43:33.317Z,3.62
2023-03-06T03:46:01.196Z,3.63
2023-03-06T03:48:29.169Z,3.62
2023-03-06T03:51:06.255Z,3.63
2023-03-06T03:53:35.582Z,3.58
2023-03-06T03:56:03.937Z,3.53
2023-03-06T03:58:33.177Z,3.50
2023-03-06T04:01:00.812Z,3.53
2023-03-06T04:03:28.637Z,3.52
2023-03-06T04:05:57.973Z,3.52
2023-03-06T04:08:27.256Z,3.54
2023-03-06T04:10:54.966Z,3.56
2023-03-06T04:13:23.851Z,3.57
2023-03-06T04:15:53.538Z,3.56
2023-03-06T04:18:23.618Z,3.50
2023-03-06T04:20:52.507Z,3.48
2023-03-06T04:23:20.316Z,3.48
2023-03-06T04:25:47.477Z,3.51
2023-03-06T04:28:14.965Z,3.51
2023-03-06T04:30:42.465Z,3.50
2023-03-06T04:33:09.693Z,3.50
2023-03-06T04:35:37.428Z,3.49
2023-03-06T04:38:09.636Z,3.48
2023-03-06T04:40:37.302Z,3.46
2023-03-06T04:43:05.048Z,3.49
2023-03-06T04:45:33.898Z,3.52
2023-03-06T04:48:01.319Z,3.51
2023-03-06T04:50:32.588Z,3.54
2023-03-06T04:53:04.647Z,3.52
2023-03-06T04:55:32.034Z,3.56
2023-03-06T04:57:59.028Z,3.54
2023-03-06T05:00:31.616Z,3.57
2023-03-06T05:03:00.747Z,3.57
2023-03-06T05:05:28.691Z,3.57
2023-03-06T05:07:57.432Z,3.57
2023-03-06T05:10:24.583Z,3.56
2023-03-06T05:12:51.503Z,3.59
2023-03-06T05:15:18.946Z,3.59
2023-03-06T05:17:47.418Z,3.58
2023-03-06T05:20:15.221Z,3.56
2023-03-06T05:22:42.690Z,3.57
2023-03-06T05:25:10.728Z,3.57
2023-03-06T05:27:38.457Z,3.53
2023-03-06T05:30:06.911Z,3.55
2023-03-06T05:32:35.726Z,3.57
2023-03-06T05:35:04.387Z,3.54
2023-03-06T05:37:31.728Z,3.55
2023-03-06T05:39:58.924Z,3.57
2023-03-06T05:42:28.516Z,3.53
2023-03-06T05:44:55.568Z,3.53
2023-03-06T05:47:22.460Z,3.57
2023-03-06T05:49:49.422Z,3.56
2023-03-06T05:52:17.464Z,3.55
2023-03-06T05:54:45.184Z,3.58
2023-03-06T05:57:12.113Z,3.56
2023-03-06T05:59:39.136Z,3.57
2023-03-06T06:02:06.043Z,3.58
2023-03-06T06:04:33.068Z,3.59
2023-03-06T06:07:01.251Z,3.55
2023-03-06T06:09:29.261Z,3.58
2023-03-06T06:12:03.599Z,3.58
2023-03-06T06:14:33.993Z,3.59
2023-03-06T06:17:01.652Z,3.60
2023-03-06T06:19:30.497Z,3.61
2023-03-06T06:21:57.665Z,3.60
2023-03-06T06:24:26.629Z,3.62
2023-03-06T06:26:56.559Z,3.63
2023-03-06T06:29:24.468Z,3.66
2023-03-06T06:31:52.632Z,3.69
2023-03-06T06:34:21.556Z,3.75
2023-03-06T06:36:51.590Z,3.78
2023-03-06T06:39:22.584Z,3.84
2023-03-06T06:42:03.007Z,3.87
2023-03-06T06:44:38.225Z,3.91
2023-03-06T06:47:22.325Z,3.96
2023-03-06T06:49:52.882Z,3.99
2023-03-06T06:52:20.114Z,4.03
2023-03-06T06:54:47.107Z,4.05
2023-03-06T06:57:15.313Z,4.09
2023-03-06T06:59:42.639Z,4.12
2023-03-06T07:02:15.835Z,4.17
2023-03-06T07:05:00.397Z,4.23
2023-03-06T07:07:30.769Z,4.32
2023-03-06T07:09:57.750Z,4.38
2023-03-06T07:12:24.646Z,4.49
2023-03-06T07:14:51.642Z,4.57
2023-03-06T07:17:18.854Z,4.67
2023-03-06T07:19:45.930Z,4.73
2023-03-06T07:22:13.142Z,4.85
2023-03-06T07:24:42.092Z,4.91
2023-03-06T07:27:09.058Z,4.96
2023-03-06T07:29:36.355Z,5.04
2023-03-06T07:32:03.660Z,5.13
2023-03-06T07:34:30.670Z,5.20
2023-03-06T07:36:57.647Z,5.24
2023-03-06T07:39:24.634Z,5.33
2023-03-06T07:41:52.346Z,5.42
2023-03-06T07:44:19.413Z,5.49
2023-03-06T07:46:46.549Z,5.52
2023-03-06T07:49:13.685Z,5.61
2023-03-06T07:51:40.897Z,5.71
2023-03-06T07:54:07.914Z,5.77
2023-03-06T07:56:35.551Z,5.86
2023-03-06T07:59:03.497Z,5.89
2023-03-06T08:01:30.792Z,5.96
2023-03-06T08:03:57.826Z,6.03
2023-03-06T08:06:27.276Z,6.12
2023-03-06T08:08:56.041Z,6.18
2023-03-06T08:11:27.172Z,6.25
2023-03-06T08:13:55.847Z,6.32
2023-03-06T08:16:26.995Z,6.45
2023-03-06T08:18:55.061Z,6.57
2023-03-06T08:21:25.826Z,6.66
2023-03-06T08:23:53.499Z,6.68
2023-03-06T08:26:24.418Z,6.76
2023-03-06T08:28:53.553Z,6.83
2023-03-06T08:31:40.586Z,6.90
2023-03-06T08:34:14.655Z,6.99
2023-03-06T08:36:42.449Z,7.08
2023-03-06T08:39:09.537Z,7.15
2023-03-06T08:41:37.730Z,7.19
2023-03-06T08:44:05.406Z,7.15
2023-03-06T08:46:34.031Z,7.13
2023-03-06T08:49:01.787Z,7.16
2023-03-06T08:51:29.429Z,7.19
2023-03-06T08:53:58.154Z,7.19
2023-03-06T08:56:29.340Z,7.22
2023-03-06T08:58:58.471Z,7.28
2023-03-06T09:01:35.934Z,7.36
2023-03-06T09:04:07.486Z,7.42
2023-03-06T09:06:38.653Z,7.51
2023-03-06T09:09:06.796Z,7.56
2023-03-06T09:11:35.256Z,7.57
2023-03-06T09:14:02.571Z,7.60
2023-03-06T09:16:29.987Z,7.66
2023-03-06T09:18:57.839Z,7.67
2023-03-06T09:21:26.135Z,7.66
2023-03-06T09:23:53.307Z,7.72
2023-03-06T09:26:20.731Z,7.80
2023-03-06T09:28:48.426Z,7.89
2023-03-06T09:31:18.893Z,7.90
2023-03-06T09:33:47.371Z,7.97
2023-03-06T09:36:18.541Z,8.00
2023-03-06T09:38:47.992Z,7.97
2023-03-06T09:41:34.630Z,7.96
2023-03-06T09:44:20.721Z,7.91
2023-03-06T09:47:08.820Z,7.90
2023-03-06T09:49:50.828Z,7.95
2023-03-06T09:52:52.316Z,7.84
2023-03-06T09:55:29.088Z,7.82
2023-03-06T09:58:23.982Z,7.79
2023-03-06T10:01:00.769Z,7.75
2023-03-06T10:04:11.371Z,7.72
2023-03-06T10:06:48.741Z,7.68
2023-03-06T10:09:34.631Z,7.67
2023-03-06T10:12:06.751Z,7.73
2023-03-06T10:14:57.065Z,7.84
2023-03-06T10:17:26.280Z,7.92
2023-03-06T10:19:53.194Z,8.00
2023-03-06T10:22:34.138Z,8.08
2023-03-06T10:25:24.143Z,8.14
2023-03-06T10:28:18.148Z,8.20
2023-03-06T10:30:59.000Z,8.19
2023-03-06T10:33:54.168Z,8.16
2023-03-06T10:36:27.308Z,8.15
2023-03-06T10:38:57.794Z,8.21
2023-03-06T10:41:31.248Z,8.25
2023-03-06T10:44:01.183Z,8.24
2023-03-06T10:46:35.286Z,8.33
2023-03-06T10:49:14.379Z,8.43
2023-03-06T10:52:02.725Z,8.53
2023-03-06T10:54:34.251Z,8.55
2023-03-06T10:57:30.735Z,8.59
2023-03-06T11:00:07.390Z,8.62
2023-03-06T11:02:39.403Z,8.65
2023-03-06T11:05:19.023Z,8.67
2023-03-06T11:08:01.857Z,8.69
2023-03-06T11:10:31.801Z,8.61
2023-03-06T11:13:21.503Z,8.50
2023-03-06T11:16:33.120Z,8.49
2023-03-06T11:19:08.404Z,8.58
2023-03-06T11:21:39.854Z,8.55
2023-03-06T11:24:17.764Z,8.51
2023-03-06T11:27:00.263Z,8.48
2023-03-06T11:29:42.309Z,8.38
2023-03-06T11:32:32.100Z,8.26
2023-03-06T11:35:06.509Z,8.17
2023-03-06T11:37:59.793Z,8.15
2023-03-06T11:40:53.003Z,8.11
2023-03-06T11:43:55.220Z,8.09
2023-03-06T11:46:29.215Z,8.13
2023-03-06T11:49:24.724Z,8.12
2023-03-06T11:51:56.809Z,7.97
2023-03-06T11:54:23.864Z,7.94
2023-03-06T11:57:02.133Z,7.89
2023-03-06T11:59:44.024Z,7.86
2023-03-06T12:02:42.405Z,7.79
2023-03-06T12:05:33.341Z,7.73
2023-03-06T12:08:22.832Z,7.80
2023-03-06T12:11:10.489Z,7.87
2023-03-06T12:14:04.205Z,7.92
2023-03-06T12:16:46.703Z,8.05
2023-03-06T12:19:33.833Z,8.10
2023-03-06T12:22:32.115Z,8.27
2023-03-06T12:25:34.954Z,8.59
2023-03-06T12:28:24.065Z,8.99
2023-03-06T12:31:17.557Z,9.36
2023-03-06T12:34:01.092Z,9.64
2023-03-06T12:36:54.367Z,10.16
2023-03-06T12:40:16.454Z,10.58
2023-03-06T12:43:19.708Z,10.65
2023-03-06T12:45:48.097Z,10.77
2023-03-06T12:48:23.491Z,11.01
2023-03-06T12:50:51.108Z,11.15
2023-03-06T12:53:32.085Z,11.28
2023-03-06T12:56:02.140Z,11.34
2023-03-06T12:58:29.249Z,11.33
2023-03-06T13:01:11.014Z,11.19
2023-03-06T13:04:11.415Z,11.05
2023-03-06T13:06:51.256Z,11.33
2023-03-06T13:09:56.055Z,12.01
2023-03-06T13:12:26.406Z,12.41
2023-03-06T13:15:00.275Z,12.68
2023-03-06T13:17:34.756Z,12.88
2023-03-06T13:20:13.966Z,13.37
2023-03-06T13:22:43.643Z,13.93
2023-03-06T13:25:19.837Z,14.52
2023-03-06T13:27:53.111Z,15.01
2023-03-06T13:30:27.926Z,15.44
2023-03-06T13:32:56.207Z,15.32
2023-03-06T13:35:34.650Z,15.25
2023-03-06T13:38:02.337Z,15.23
2023-03-06T13:40:33.848Z,15.22
2023-03-06T13:43:10.518Z,15.19
2023-03-06T13:45:42.702Z,14.85
2023-03-06T13:48:46.236Z,14.44
2023-03-06T13:51:22.048Z,14.09
2023-03-06T13:54:23.974Z,13.91
2023-03-06T13:57:49.565Z,13.34
2023-03-06T14:00:55.614Z,12.80
2023-03-06T14:04:08.778Z,12.23
2023-03-06T14:06:35.671Z,11.75
2023-03-06T14:09:25.241Z,11.31
2023-03-06T14:11:58.778Z,11.00
2023-03-06T14:14:39.117Z,10.86
2023-03-06T14:17:06.307Z,10.68
2023-03-06T14:19:38.638Z,10.57
2023-03-06T14:22:07.050Z,10.39
2023-03-06T14:24:38.756Z,10.16
2023-03-06T14:27:06.184Z,10.03
2023-03-06T14:29:34.051Z,9.94
2023-03-06T14:32:02.388Z,9.92
2023-03-06T14:34:33.957Z,9.88
2023-03-06T14:37:05.533Z,9.76
2023-03-06T14:39:39.790Z,9.68
2023-03-06T14:42:06.734Z,9.61
2023-03-06T14:44:33.782Z,9.52
2023-03-06T14:47:29.570Z,9.39
2023-03-06T14:50:18.337Z,9.27
2023-03-06T14:52:45.536Z,9.13
2023-03-06T14:55:20.097Z,8.97
2023-03-06T14:57:58.354Z,8.88
2023-03-06T15:00:33.273Z,8.76
2023-03-06T15:03:00.756Z,8.61
2023-03-06T15:05:29.753Z,8.44
2023-03-06T15:08:05.484Z,8.32
2023-03-06T15:10:35.176Z,8.22
2023-03-06T15:13:27.676Z,8.13
2023-03-06T15:16:15.041Z,8.10
2023-03-06T15:18:59.585Z,8.02
2023-03-06T15:21:32.277Z,8.00
2023-03-06T15:23:59.631Z,8.01
2023-03-06T15:26:36.759Z,7.91
2023-03-06T15:29:10.885Z,7.94
2023-03-06T15:31:41.240Z,7.93
2023-03-06T15:34:10.767Z,7.93
2023-03-06T15:36:48.993Z,7.94
2023-03-06T15:39:36.763Z,7.91
2023-03-06T15:42:20.542Z,7.91
2023-03-06T15:45:00.196Z,7.90
2023-03-06T15:47:27.385Z,7.83
2023-03-06T15:49:55.112Z,7.74
2023-03-06T15:52:23.083Z,7.66
2023-03-06T15:54:50.515Z,7.59
2023-03-06T15:57:29.315Z,7.51
2023-03-06T15:59:58.057Z,7.37
2023-03-06T16:02:25.028Z,7.28
2023-03-06T16:04:53.185Z,7.20
2023-03-06T16:07:20.768Z,7.18
2023-03-06T16:09:47.893Z,7.23
2023-03-06T16:12:20.843Z,7.21
2023-03-06T16:14:49.439Z,7.15
2023-03-06T16:17:17.331Z,7.09
2023-03-06T16:19:44.710Z,7.01
2023-03-06T16:22:11.741Z,6.95
2023-03-06T16:24:38.793Z,6.94
2023-03-06T16:27:07.109Z,6.91
2023-03-06T16:29:35.237Z,6.89
2023-03-06T16:32:02.879Z,6.85
2023-03-06T16:34:29.862Z,6.85
2023-03-06T16:36:56.945Z,6.82
2023-03-06T16:39:24.500Z,6.87
2023-03-06T16:41:52.255Z,6.83
2023-03-06T16:44:20.706Z,6.72
2023-03-06T16:46:50.240Z,6.64
2023-03-06T16:49:23.469Z,6.51
2023-03-06T16:51:51.903Z,6.39
2023-03-06T16:54:19.699Z,6.28
2023-03-06T16:56:46.832Z,6.19
2023-03-06T16:59:14.142Z,6.08
2023-03-06T17:01:43.169Z,6.01
2023-03-06T17:04:10.887Z,5.92
2023-03-06T17:06:38.628Z,5.74
2023-03-06T17:09:05.953Z,5.64
2023-03-06T17:11:32.911Z,5.56
2023-03-06T17:14:01.478Z,5.45
2023-03-06T17:16:28.484Z,5.43
2023-03-06T17:18:56.032Z,5.36
2023-03-06T17:21:26.461Z,5.28
2023-03-06T17:23:53.558Z,5.27
2023-03-06T17:26:20.989Z,5.17
2023-03-06T17:28:48.431Z,5.10
2023-03-06T17:31:21.639Z,5.02
2023-03-06T17:33:48.935Z,4.96
2023-03-06T17:36:17.040Z,4.90
2023-03-06T17:38:44.398Z,4.83
2023-03-06T17:41:12.360Z,4.73
2023-03-06T17:43:40.117Z,4.68
2023-03-06T17:46:11.344Z,4.64
2023-03-06T17:48:39.479Z,4.58
2023-03-06T17:51:07.464Z,4.48
2023-03-06T17:53:35.274Z,4.42
2023-03-06T17:56:07.729Z,4.38
2023-03-06T17:58:35.476Z,4.30
2023-03-06T18:01:12.246Z,4.25
2023-03-06T18:03:40.783Z,4.21
2023-03-06T18:06:09.490Z,4.17
2023-03-06T18:08:38.041Z,4.14
2023-03-06T18:11:07.770Z,4.11
2023-03-06T18:13:37.941Z,4.09
2023-03-06T18:16:06.346Z,4.04
2023-03-06T18:18:33.794Z,4.01
2023-03-06T18:21:10.397Z,3.98
2023-03-06T18:23:38.981Z,3.98
2023-03-06T18:26:12.081Z,3.94
2023-03-06T18:28:42.469Z,3.95
2023-03-06T18:31:29.158Z,3.95
2023-03-06T18:33:59.615Z,3.94
2023-03-06T18:36:30.359Z,3.90
2023-03-06T18:38:59.281Z,3.92
2023-03-06T18:41:26.414Z,3.90
2023-03-06T18:43:55.849Z,3.88
2023-03-06T18:46:24.503Z,3.94
2023-03-06T18:48:51.845Z,3.99
2023-03-06T18:51:20.122Z,4.06
2023-03-06T18:53:47.101Z,4.13
2023-03-06T18:56:21.417Z,4.19
2023-03-06T18:58:50.323Z,4.22
2023-03-06T19:01:18.344Z,4.25
2023-03-06T19:03:45.565Z,4.31
2023-03-06T19:06:15.111Z,4.35
2023-03-06T19:08:43.032Z,4.37
2023-03-06T19:11:15.848Z,4.39
2023-03-06T19:13:43.217Z,4.41
2023-03-06T19:16:18.252Z,4.45
2023-03-06T19:18:45.493Z,4.47
2023-03-06T19:21:18.822Z,4.51
2023-03-06T19:23:46.436Z,4.49
2023-03-06T19:26:14.023Z,4.54
2023-03-06T19:28:42.613Z,4.58
2023-03-06T19:31:20.117Z,4.60
2023-03-06T19:33:53.092Z,4.67
2023-03-06T19:36:26.440Z,4.66
2023-03-06T19:38:55.652Z,4.68
2023-03-06T19:41:22.715Z,4.65
2023-03-06T19:43:53.665Z,4.69
2023-03-06T19:46:22.713Z,4.71
2023-03-06T19:49:02.187Z,4.72
2023-03-06T19:51:29.507Z,4.73
2023-03-06T19:53:57.629Z,4.76
2023-03-06T19:56:28.802Z,4.77
2023-03-06T19:58:56.355Z,4.83
2023-03-06T20:01:25.822Z,4.76
2023-03-06T20:03:59.057Z,4.78
2023-03-06T20:06:31.334Z,4.76
2023-03-06T20:08:58.393Z,4.76
2023-03-06T20:11:29.803Z,4.76
2023-03-06T20:13:59.348Z,4.77
2023-03-06T20:16:29.951Z,4.77
2023-03-06T20:18:58.862Z,4.76
2023-03-06T20:21:28.143Z,4.74
2023-03-06T20:23:57.886Z,4.72
2023-03-06T20:26:28.249Z,4.72
2023-03-06T20:28:56.063Z,4.74
2023-03-06T20:31:26.286Z,4.76
2023-03-06T20:33:55.281Z,4.70
2023-03-06T20:36:29.505Z,4.70
2023-03-06T20:39:00.118Z,4.69
2023-03-06T20:41:29.169Z,4.72
2023-03-06T20:43:58.333Z,4.71
2023-03-06T20:46:25.710Z,4.73
2023-03-06T20:48:54.253Z,4.75
2023-03-06T20:51:28.586Z,4.76
2023-03-06T20:53:56.395Z,4.76
2023-03-06T20:56:27.497Z,4.74
2023-03-06T20:58:54.680Z,4.68
2023-03-06T21:01:33.338Z,4.66
2023-03-06T21:04:01.689Z,4.61
2023-03-06T21:06:29.556Z,4.63
2023-03-06T21:08:58.023Z,4.56
2023-03-06T21:11:25.180Z,4.57
2023-03-06T21:13:56.270Z,4.53
2023-03-06T21:16:25.931Z,4.53
2023-03-06T21:18:55.620Z,4.51
2023-03-06T21:21:26.312Z,4.49
2023-03-06T21:23:53.208Z,4.44
2023-03-06T21:26:24.078Z,4.51
2023-03-06T21:28:52.273Z,4.48
2023-03-06T21:31:21.549Z,4.52
2023-03-06T21:33:49.776Z,4.53
2023-03-06T21:36:18.766Z,4.51
2023-03-06T21:38:47.059Z,4.54
2023-03-06T21:41:21.585Z,4.50
2023-03-06T21:43:48.759Z,4.51
2023-03-06T21:46:16.068Z,4.48
2023-03-06T21:48:43.169Z,4.48
2023-03-06T21:51:15.743Z,4.46
2023-03-06T21:53:44.013Z,4.48
2023-03-06T21:56:12.414Z,4.50
2023-03-06T21:58:39.496Z,4.50
2023-03-06T22:01:16.190Z,4.48
2023-03-06T22:03:43.590Z,4.53
2023-03-06T22:06:13.882Z,4.59
2023-03-06T22:08:42.256Z,4.58
2023-03-06T22:11:17.004Z,4.57
2023-03-06T22:13:45.786Z,4.61
2023-03-06T22:16:13.044Z,4.61
2023-03-06T22:18:43.776Z,4.58
2023-03-06T22:21:13.359Z,4.61
2023-03-06T22:23:41.018Z,4.62
2023-03-06T22:26:14.330Z,4.62
2023-03-06T22:28:42.095Z,4.62
2023-03-06T22:31:16.133Z,4.62
2023-03-06T22:33:43.977Z,4.62
2023-03-06T22:36:14.682Z,4.62
2023-03-06T22:38:44.546Z,4.61
2023-03-06T22:41:14.099Z,4.60
2023-03-06T22:43:41.420Z,4.56
2023-03-06T22:46:15.361Z,4.53
2023-03-06T22:48:42.670Z,4.55
2023-03-06T22:51:13.272Z,4.50
2023-03-06T22:53:41.497Z,4.46
2023-03-06T22:56:12.915Z,4.49
2023-03-06T22:58:40.438Z,4.45
2023-03-06T23:01:18.433Z,4.43
2023-03-06T23:03:49.906Z,4.39
2023-03-06T23:06:30.284Z,4.37
2023-03-06T23:09:14.952Z,4.33
2023-03-06T23:12:00.573Z,4.27
2023-03-06T23:14:49.602Z,4.22
2023-03-06T23:17:35.059Z,4.14
2023-03-06T23:20:20.646Z,4.08
2023-03-06T23:23:06.274Z,3.99
2023-03-06T23:25:42.453Z,3.91
2023-03-06T23:28:09.673Z,3.84
2023-03-06T23:30:39.615Z,3.81
2023-03-06T23:33:07.603Z,3.75
2023-03-06T23:35:36.306Z,3.73
2023-03-06T23:38:03.416Z,3.71
2023-03-06T23:40:33.495Z,3.67
2023-03-06T23:43:00.561Z,3.65
2023-03-06T23:45:27.599Z,3.62
2023-03-06T23:47:54.522Z,3.59
2023-03-06T23:50:23.369Z,3.54
2023-03-06T23:52:54.811Z,3.51
2023-03-06T23:55:21.883Z,3.45
2023-03-06T23:57:48.812Z,3.39
